Time;durP1;ratioP1;P1;durP2;ratioP2;P2;SDS_P1;SDS_P2;PMS_P1;PMS_P2;Temp;Humidity;BMP_temperature;BMP_pressure;BME280_temperature;BME280_humidity;BME280_pressure;Samples;Min_cycle;Max_cycle;Signal;HPM_P1;HPM_P2
2021/07/16 00:00:13;;;;;;;0.90;0.40;;;12.90;1.40;;;13.88;100.00;95379.21;645770;212;31987;-72
2021/07/16 00:02:58;;;;;;;2.28;0.60;;;12.90;1.40;;;13.83;100.00;95378.14;646239;212;36711;-71
2021/07/16 00:05:39;;;;;;;2.95;0.68;;;12.90;1.40;;;13.78;100.00;95377.84;645583;212;31693;-70
2021/07/16 00:08:21;;;;;;;1.60;0.50;;;12.90;1.40;;;13.76;100.00;95378.22;646001;212;31569;-70
2021/07/16 00:11:03;;;;;;;3.15;0.68;;;12.80;1.40;;;13.71;100.00;95376.13;645857;216;32853;-70
2021/07/16 00:13:44;;;;;;;3.28;0.60;;;12.70;1.40;;;13.71;100.00;95382.02;646062;212;42322;-70
2021/07/16 00:16:26;;;;;;;2.22;0.60;;;12.60;1.40;;;13.76;100.00;95379.52;645094;212;31516;-71
2021/07/16 00:19:08;;;;;;;4.07;1.10;;;12.60;1.40;;;13.82;100.00;95386.46;646534;216;31748;-71
2021/07/16 00:21:50;;;;;;;4.50;0.77;;;12.50;1.40;;;13.87;100.00;95385.08;646995;216;32021;-71
2021/07/16 00:24:31;;;;;;;3.15;0.80;;;12.60;1.40;;;13.83;100.00;95386.06;645805;212;33001;-71
2021/07/16 00:27:13;;;;;;;2.95;0.52;;;12.60;1.40;;;13.86;100.00;95388.28;647821;212;31547;-70
2021/07/16 00:29:55;;;;;;;1.87;0.90;;;12.60;1.40;;;13.89;100.00;95386.22;647059;212;32658;-71
2021/07/16 00:32:36;;;;;;;1.12;0.60;;;12.70;1.40;;;14.01;100.00;95388.94;645901;216;31563;-71
2021/07/16 00:35:51;;;;;;;1.30;0.52;;;12.70;1.40;;;14.00;100.00;95388.15;647484;216;31588;-70
2021/07/16 00:38:35;;;;;;;3.12;0.80;;;12.70;1.40;;;14.06;100.00;95383.79;647040;216;34932;-70
2021/07/16 00:41:17;;;;;;;2.12;0.90;;;12.70;1.40;;;14.02;100.00;95392.60;635498;216;31663;-70
2021/07/16 00:43:59;;;;;;;2.85;0.80;;;12.80;1.40;;;14.05;100.00;95395.36;620103;222;33795;-71
2021/07/16 00:46:40;;;;;;;1.12;0.60;;;12.80;1.40;;;14.09;100.00;95396.00;644874;212;42195;-71
2021/07/16 00:49:22;;;;;;;3.47;0.80;;;12.90;1.40;;;14.15;100.00;95393.79;647602;216;41745;-70
2021/07/16 00:52:04;;;;;;;1.80;0.60;;;12.90;1.40;;;14.24;100.00;95397.70;646695;216;42642;-71
2021/07/16 00:54:46;;;;;;;1.92;0.70;;;13.00;1.40;;;14.30;100.00;95394.12;645848;216;42246;-71
2021/07/16 00:57:28;;;;;;;2.30;0.70;;;13.00;1.40;;;14.32;100.00;95394.64;646230;212;34347;-72
2021/07/16 01:00:13;;;;;;;1.60;0.70;;;13.10;1.40;;;14.39;100.00;95397.98;646536;213;42153;-71
2021/07/16 01:02:54;;;;;;;2.45;0.98;;;13.10;1.40;;;14.46;100.00;95392.75;646172;216;35925;-71
2021/07/16 01:05:36;;;;;;;2.08;0.65;;;13.20;1.40;;;14.43;100.00;95390.43;645002;216;32176;-71
2021/07/16 01:08:18;;;;;;;3.37;0.63;;;13.20;1.40;;;14.36;100.00;95391.27;647440;216;31590;-70
2021/07/16 01:10:59;;;;;;;1.95;0.57;;;13.20;1.40;;;14.42;100.00;95385.67;646179;212;41899;-71
2021/07/16 01:13:41;;;;;;;1.55;0.70;;;13.20;1.40;;;14.40;100.00;95388.51;646834;212;42704;-71
2021/07/16 01:16:23;;;;;;;1.50;0.60;;;13.20;1.40;;;14.54;100.00;95386.61;644557;212;32457;-71
2021/07/16 01:19:05;;;;;;;1.17;0.57;;;13.30;1.40;;;14.42;100.00;95384.69;646730;216;34600;-71
2021/07/16 01:21:46;;;;;;;1.55;0.52;;;13.30;1.40;;;14.46;100.00;95379.30;646318;212;31841;-69
2021/07/16 01:24:28;;;;;;;1.65;1.00;;;13.30;1.40;;;14.52;100.00;95377.42;646246;212;31572;-71
2021/07/16 01:27:10;;;;;;;2.22;0.70;;;13.30;1.40;;;14.35;100.00;95375.50;646782;212;42285;-71
2021/07/16 01:29:51;;;;;;;2.50;0.80;;;13.30;1.40;;;14.43;100.00;95370.34;646551;216;42502;-70
2021/07/16 01:32:38;;;;;;;1.48;0.60;;;13.20;1.40;;;14.55;100.00;95364.48;646745;216;31548;-71
2021/07/16 01:35:51;;;;;;;3.22;1.10;;;13.30;1.40;;;14.53;100.00;95361.34;647161;216;32060;-70
2021/07/16 01:38:32;;;;;;;3.30;0.77;;;13.30;1.40;;;14.46;100.00;95359.45;618809;222;42577;-71
2021/07/16 01:41:14;;;;;;;2.60;0.80;;;13.30;1.40;;;14.47;100.00;95360.08;636405;212;42390;-71
2021/07/16 01:43:56;;;;;;;2.60;0.70;;;13.30;1.40;;;14.46;100.00;95360.31;646641;216;42259;-71
2021/07/16 01:46:38;;;;;;;1.95;0.57;;;13.20;1.40;;;14.46;100.00;95355.16;646022;216;42955;-70
2021/07/16 01:49:19;;;;;;;3.90;0.90;;;13.20;1.40;;;14.40;100.00;95349.95;647050;216;32031;-69
2021/07/16 01:52:01;;;;;;;1.98;0.70;;;13.10;1.40;;;14.33;100.00;95345.92;646396;212;42237;-73
2021/07/16 01:54:43;;;;;;;3.60;0.80;;;13.00;1.40;;;14.22;100.00;95341.16;646251;212;42293;-70
2021/07/16 01:57:24;;;;;;;2.72;0.98;;;13.00;1.40;;;14.07;100.00;95344.59;646056;216;42245;-71
2021/07/16 02:00:10;;;;;;;2.70;0.90;;;12.90;1.40;;;13.95;100.00;95343.34;646140;216;42240;-70
2021/07/16 02:02:53;;;;;;;2.50;0.90;;;12.80;1.40;;;13.79;100.00;95349.98;646181;212;40202;-70
2021/07/16 02:05:34;;;;;;;5.32;1.00;;;12.70;1.40;;;13.72;100.00;95354.92;646827;216;32098;-71
2021/07/16 02:08:20;;;;;;;3.00;0.80;;;12.60;1.40;;;13.75;100.00;95357.03;618680;226;32280;-71
2021/07/16 02:11:01;;;;;;;6.30;1.40;;;12.60;1.40;;;13.80;100.00;95361.89;646360;212;31538;-71
2021/07/16 02:13:43;;;;;;;2.80;1.00;;;12.60;1.40;;;13.83;100.00;95358.59;646393;216;33802;-71
2021/07/16 02:16:25;;;;;;;3.12;1.02;;;12.60;1.40;;;13.83;100.00;95360.44;645193;212;32409;-71
2021/07/16 02:19:09;;;;;;;2.58;0.85;;;12.50;1.40;;;13.78;100.00;95362.67;618083;226;31936;-71
2021/07/16 02:21:51;;;;;;;2.25;0.70;;;12.40;1.40;;;13.72;100.00;95368.38;646932;216;36259;-70
2021/07/16 02:24:33;;;;;;;2.12;0.75;;;12.30;1.40;;;13.87;100.00;95368.42;646245;212;31568;-71
2021/07/16 02:29:50;;;;;;;2.70;0.90;;;12.30;1.40;;;13.71;100.00;95372.98;645375;212;31619;-72
2021/07/16 02:32:33;;;;;;;3.40;1.00;;;12.30;1.40;;;13.71;100.00;95365.38;646447;216;31552;-72
2021/07/16 02:35:54;;;;;;;3.62;1.00;;;12.40;1.40;;;13.64;100.00;95360.52;645838;212;32240;-71
2021/07/16 02:38:36;;;;;;;3.30;1.20;;;12.30;1.40;;;13.64;100.00;95361.13;646688;216;31654;-70
2021/07/16 02:41:18;;;;;;;2.30;0.60;;;12.40;1.40;;;13.63;100.00;95362.40;610746;226;32329;-71
2021/07/16 02:43:59;;;;;;;3.53;0.70;;;12.40;1.40;;;13.63;100.00;95362.53;646146;212;31673;-71
2021/07/16 02:46:44;;;;;;;5.28;1.00;;;12.40;1.40;;;13.69;100.00;95365.75;646339;216;42592;-71
2021/07/16 02:49:26;;;;;;;1.00;0.80;;;12.40;1.40;;;13.83;100.00;95366.11;645287;212;36988;-71
2021/07/16 02:52:08;;;;;;;3.00;0.87;;;12.50;1.40;;;13.77;100.00;95366.00;646984;212;31550;-70
2021/07/16 02:54:49;;;;;;;5.10;1.20;;;12.60;1.40;;;13.77;100.00;95373.03;647102;212;31530;-70
2021/07/16 02:57:31;;;;;;;6.10;0.93;;;12.60;1.40;;;13.75;100.00;95370.61;647351;212;31523;-70
2021/07/16 03:00:13;;;;;;;2.30;0.80;;;12.60;1.40;;;13.75;100.00;95375.42;646254;212;31591;-71
2021/07/16 03:02:55;;;;;;;2.05;0.68;;;12.70;1.40;;;13.78;100.00;95377.84;619329;222;32571;-70
2021/07/16 03:05:36;;;;;;;2.17;0.98;;;12.70;1.40;;;13.79;100.00;95387.43;645678;212;31558;-71
2021/07/16 03:08:21;;;;;;;2.40;0.90;;;12.70;1.40;;;13.83;100.00;95385.85;645611;216;33955;-71
2021/07/16 03:11:03;;;;;;;2.87;1.30;;;12.70;1.40;;;13.82;100.00;95390.02;646767;212;32726;-72
2021/07/16 03:13:45;;;;;;;2.20;1.27;;;12.70;1.40;;;13.84;100.00;95387.59;646401;212;31561;-72
2021/07/16 03:16:29;;;;;;;3.55;0.80;;;12.70;1.40;;;13.85;100.00;95383.36;645418;212;31500;-71
2021/07/16 03:19:11;;;;;;;3.50;1.00;;;12.70;1.40;;;13.93;100.00;95387.27;646657;212;38813;-71
2021/07/16 03:21:53;;;;;;;1.90;0.70;;;12.70;1.40;;;13.94;100.00;95390.95;645665;212;42188;-70
2021/07/16 03:24:37;;;;;;;3.35;0.88;;;12.70;1.40;;;13.95;100.00;95395.58;647090;212;35169;-71
2021/07/16 03:27:19;;;;;;;2.03;0.80;;;12.80;1.40;;;14.00;100.00;95399.27;646411;216;31578;-72
2021/07/16 03:30:07;;;;;;;1.10;0.60;;;12.80;1.40;;;14.08;100.00;95399.02;647108;212;31535;-77
2021/07/16 03:32:51;;;;;;;1.00;0.50;;;12.90;1.40;;;14.12;100.00;95393.55;646088;212;31530;-71
2021/07/16 03:35:51;;;;;;;1.92;0.65;;;12.90;1.40;;;14.09;100.00;95391.86;619085;226;31872;-70
2021/07/16 03:38:33;;;;;;;1.43;0.50;;;12.90;1.40;;;14.04;100.00;95392.40;646411;216;33436;-71
2021/07/16 03:41:15;;;;;;;1.80;0.68;;;12.90;1.40;;;14.08;100.00;95401.05;610263;226;31985;-70
2021/07/16 03:44:00;;;;;;;1.98;0.70;;;12.90;1.40;;;14.07;100.00;95406.64;647664;212;42126;-71
2021/07/16 03:46:41;;;;;;;1.50;0.70;;;12.90;1.40;;;14.17;100.00;95406.09;645435;212;37351;-71
2021/07/16 03:49:28;;;;;;;1.62;0.60;;;12.90;1.40;;;14.43;100.00;95409.53;646183;216;42191;-71
2021/07/16 03:52:08;;;;;;;2.12;0.80;;;13.00;1.40;;;14.62;100.00;95413.62;645471;212;42141;-71
2021/07/16 03:54:53;;;;;;;1.20;0.80;;;13.10;1.40;;;14.75;100.00;95414.05;646718;216;41953;-72
2021/07/16 03:57:35;;;;;;;2.05;1.10;;;13.20;1.40;;;14.68;100.00;95420.14;646088;216;32409;-72
2021/07/16 04:00:21;;;;;;;1.80;0.70;;;13.10;1.40;;;14.73;100.00;95421.84;642605;215;31530;-72
2021/07/16 04:03:01;;;;;;;1.20;0.80;;;13.20;1.40;;;14.75;100.00;95426.88;619168;226;42499;-72
2021/07/16 04:05:45;;;;;;;1.30;0.80;;;13.20;1.40;;;14.71;100.00;95423.98;645723;212;42832;-71
2021/07/16 04:08:25;;;;;;;2.00;0.80;;;13.20;1.40;;;15.01;100.00;95420.44;645998;212;32153;-71
2021/07/16 04:11:06;;;;;;;2.70;0.80;;;13.30;1.40;;;15.07;100.00;95424.11;646880;216;31853;-71
2021/07/16 04:13:48;;;;;;;1.30;0.70;;;13.30;1.40;;;14.90;100.00;95423.27;646797;216;31556;-71
2021/07/16 04:16:30;;;;;;;2.83;0.88;;;13.30;1.40;;;14.88;100.00;95424.95;645389;216;42114;-70
2021/07/16 04:19:11;;;;;;;2.87;0.68;;;13.30;1.40;;;14.70;100.00;95429.42;632027;222;31737;-72
2021/07/16 04:21:53;;;;;;;1.52;0.60;;;13.30;1.40;;;14.74;100.00;95433.11;645472;212;31529;-70
2021/07/16 04:24:38;;;;;;;1.25;0.60;;;13.30;1.40;;;14.84;100.00;95433.56;645379;216;31542;-71
2021/07/16 04:27:19;;;;;;;3.08;0.98;;;13.40;1.40;;;15.10;100.00;95437.96;646167;216;42130;-71
2021/07/16 04:30:01;;;;;;;1.20;0.77;;;13.50;1.40;;;15.04;100.00;95436.28;618996;222;42520;-71
2021/07/16 04:32:43;;;;;;;6.12;1.05;;;13.50;1.40;;;14.95;100.00;95438.13;619310;222;32166;-70
2021/07/16 04:35:51;;;;;;;4.40;0.70;;;13.50;1.40;;;14.73;100.00;95437.77;646838;212;31732;-71
2021/07/16 04:38:35;;;;;;;1.95;1.00;;;13.50;1.40;;;14.82;100.00;95434.30;616964;226;31871;-72
2021/07/16 04:41:15;;;;;;;2.85;0.80;;;13.50;1.40;;;14.94;100.00;95433.98;635463;212;31779;-70
2021/07/16 04:43:57;;;;;;;4.63;0.90;;;13.60;1.40;;;14.90;100.00;95439.37;646596;212;31629;-71
2021/07/16 04:46:41;;;;;;;2.10;0.70;;;13.60;1.40;;;15.07;100.00;95440.00;646113;212;32155;-71
2021/07/16 04:49:23;;;;;;;1.75;0.50;;;13.70;1.40;;;15.02;100.00;95440.39;646148;212;31598;-72
2021/07/16 04:52:05;;;;;;;2.37;0.70;;;13.80;1.40;;;15.13;100.00;95443.33;646490;212;31625;-72
2021/07/16 04:54:47;;;;;;;0.80;0.50;;;13.90;1.40;;;15.22;100.00;95443.45;645087;216;31537;-70
2021/07/16 04:57:28;;;;;;;1.80;0.65;;;13.90;1.40;;;15.26;100.00;95449.43;646302;212;31502;-71
2021/07/16 05:00:11;;;;;;;1.60;0.40;;;14.00;1.40;;;15.33;100.00;95445.14;645437;212;42258;-70
2021/07/16 05:02:56;;;;;;;2.30;0.65;;;14.00;1.40;;;15.43;100.00;95450.72;645925;212;31576;-71
2021/07/16 05:05:37;;;;;;;1.80;0.70;;;14.10;1.40;;;15.47;100.00;95452.81;645498;216;31608;-71
2021/07/16 05:08:19;;;;;;;4.10;0.90;;;14.10;1.40;;;15.53;100.00;95451.45;645556;216;31480;-70
2021/07/16 05:11:01;;;;;;;1.20;0.60;;;14.10;1.40;;;15.43;100.00;95449.90;618112;226;31892;-70
2021/07/16 05:16:17;;;;;;;1.30;0.70;;;14.30;1.40;;;15.87;100.00;95456.38;646506;216;31471;-70
2021/07/16 05:18:58;;;;;;;1.30;0.60;;;14.40;1.40;;;16.11;100.00;95463.63;646029;216;31630;-70
2021/07/16 05:22:01;;;;;;;1.65;0.70;;;14.50;1.40;;;16.33;100.00;95464.34;645901;212;31556;-71
2021/07/16 05:24:43;;;;;;;0.73;0.40;;;14.60;1.40;;;16.30;100.00;95463.04;616720;226;32233;-70
2021/07/16 05:27:25;;;;;;;0.80;0.50;;;14.70;1.40;;;16.45;100.00;95461.65;646106;212;31520;-71
2021/07/16 05:30:07;;;;;;;1.90;0.52;;;14.80;1.40;;;16.46;100.00;95457.67;647279;212;31481;-70
2021/07/16 05:32:49;;;;;;;2.40;0.60;;;14.80;1.40;;;16.07;100.00;95461.09;646905;216;31485;-71
2021/07/16 05:35:57;;;;;;;3.12;0.60;;;14.60;1.40;;;15.83;100.00;95461.00;646106;216;32363;-71
2021/07/16 05:38:40;;;;;;;1.20;0.60;;;14.60;1.40;;;15.90;100.00;95465.97;619645;225;31949;-70
2021/07/16 05:41:23;;;;;;;1.60;0.70;;;14.60;1.40;;;15.96;100.00;95466.44;633722;212;32271;-70
2021/07/16 05:44:03;;;;;;;1.53;0.50;;;14.60;1.40;;;16.41;100.00;95466.30;646090;216;31590;-72
2021/07/16 05:46:45;;;;;;;1.70;0.80;;;14.90;1.40;;;16.47;100.00;95467.20;646517;216;31516;-73
2021/07/16 05:49:35;;;;;;;1.40;0.70;;;14.90;1.40;;;16.49;100.00;95469.56;647690;216;31552;-71
2021/07/16 05:52:16;;;;;;;2.00;0.68;;;14.90;1.40;;;16.97;100.00;95472.09;647217;212;32219;-71
2021/07/16 05:54:58;;;;;;;2.47;0.70;;;15.10;1.40;;;17.26;100.00;95471.70;647142;212;31670;-71
2021/07/16 05:57:40;;;;;;;1.05;0.62;;;15.20;1.40;;;17.48;100.00;95468.75;645154;212;32119;-70
2021/07/16 06:00:21;;;;;;;1.42;0.65;;;15.40;1.40;;;17.27;100.00;95467.59;619608;226;31929;-70
2021/07/16 06:03:06;;;;;;;0.90;0.60;;;15.40;1.40;;;17.37;100.00;95468.99;646777;212;32226;-71
2021/07/16 06:05:48;;;;;;;1.52;0.90;;;15.50;1.40;;;-143.44;100.00;122422.95;646179;212;31681;-71
2021/07/16 06:08:29;;;;;;;1.40;0.80;;;15.50;1.40;;;;;;646290;212;42125;-71
2021/07/16 06:11:10;;;;;;;2.65;0.80;;;15.60;1.40;;;;;;648188;216;31654;-70
2021/07/16 06:13:51;;;;;;;1.30;0.90;;;15.80;1.40;;;;;;644643;212;31547;-71
2021/07/16 06:16:32;;;;;;;1.70;1.23;;;16.10;1.40;;;;;;645661;216;31666;-71
2021/07/16 06:19:13;;;;;;;1.75;1.30;;;16.20;1.40;;;;;;645905;212;31605;-71
2021/07/16 06:21:54;;;;;;;3.30;2.00;;;16.50;1.40;;;;;;647059;216;31925;-71
2021/07/16 06:24:35;;;;;;;2.53;1.75;;;16.30;1.40;;;;;;646095;213;31565;-70
2021/07/16 06:27:19;;;;;;;3.00;2.55;;;16.30;1.40;;;;;;646093;216;31600;-69
2021/07/16 06:30:00;;;;;;;3.10;2.80;;;16.40;1.40;;;;;;645486;212;31745;-71
2021/07/16 06:32:42;;;;;;;2.90;2.20;;;16.30;1.40;;;;;;645689;216;31634;-71
2021/07/16 06:35:51;;;;;;;2.78;2.20;;;16.40;1.40;;;19.15;100.00;95500.00;646919;216;42221;-71
2021/07/16 06:38:32;;;;;;;3.00;2.40;;;16.80;1.40;;;19.30;98.56;95501.30;646932;216;31602;-70
2021/07/16 06:41:14;;;;;;;2.62;2.00;;;16.90;1.40;;;20.07;97.69;95501.77;635144;216;31715;-71
2021/07/16 06:43:56;;;;;;;2.85;1.90;;;17.30;1.40;;;20.29;96.80;95499.58;644817;216;31577;-71
2021/07/16 06:46:37;;;;;;;2.67;2.10;;;17.60;1.40;;;19.55;97.93;95502.38;646265;212;31535;-71
2021/07/16 06:49:26;;;;;;;2.60;2.20;;;17.30;1.40;;;19.83;97.99;95507.24;618522;226;31886;-71
2021/07/16 06:52:04;;;;;;;2.37;2.10;;;17.10;1.40;;;-143.44;100.00;122422.95;645840;212;31576;-71
2021/07/16 06:54:45;;;;;;;3.60;3.00;;;17.00;1.40;;;;;;647303;212;31760;-71
2021/07/16 06:57:26;;;;;;;3.25;2.80;;;17.00;1.40;;;;;;618918;223;31987;-71
2021/07/16 07:00:08;;;;;;;2.72;2.53;;;17.10;1.40;;;;;;644551;216;31653;-71
2021/07/16 07:02:49;;;;;;;3.10;2.30;;;17.30;1.40;;;;;;646080;216;31873;-71
2021/07/16 07:05:30;;;;;;;2.87;2.60;;;18.00;1.40;;;;;;646891;212;31698;-70
2021/07/16 07:08:11;;;;;;;3.20;2.80;;;18.30;1.40;;;;;;644979;212;31849;-71
2021/07/16 07:10:52;;;;;;;2.40;2.20;;;18.40;1.40;;;;;;645354;216;31811;-71
2021/07/16 07:13:33;;;;;;;3.10;2.40;;;18.20;1.40;;;;;;646838;212;31620;-70
2021/07/16 07:16:16;;;;;;;2.47;1.90;;;18.10;1.40;;;;;;647398;216;31767;-71
2021/07/16 07:18:59;;;;;;;2.40;2.20;;;18.20;1.40;;;;;;646050;216;31626;-71
2021/07/16 07:21:40;;;;;;;2.87;2.22;;;18.30;1.40;;;;;;646228;216;31539;-71
2021/07/16 07:24:21;;;;;;;2.72;2.10;;;18.50;1.40;;;;;;645823;216;42177;-70
2021/07/16 07:27:02;;;;;;;2.65;2.08;;;18.50;1.40;;;;;;646698;212;31525;-70
2021/07/16 07:29:43;;;;;;;2.60;2.40;;;18.60;1.40;;;;;;645486;212;31565;-71
2021/07/16 07:32:24;;;;;;;2.90;1.90;;;18.60;1.40;;;;;;646540;212;31584;-71
2021/07/16 07:35:51;;;;;;;1.90;1.80;;;19.20;1.40;;;22.74;77.59;95556.59;646072;212;31591;-71
2021/07/16 07:38:34;;;;;;;2.50;1.80;;;19.90;1.40;;;22.94;76.82;95554.55;645089;212;31560;-70
2021/07/16 07:41:14;;;;;;;2.08;1.87;;;19.90;1.40;;;22.49;75.72;95556.28;634368;216;31754;-71
2021/07/16 07:43:59;;;;;;;3.08;1.70;;;19.60;1.40;;;21.27;81.51;95558.36;645419;216;31664;-71
2021/07/16 07:46:40;;;;;;;1.70;1.60;;;18.80;1.40;;;21.44;83.45;95559.70;647021;212;31591;-70
2021/07/16 07:49:28;;;;;;;2.90;1.60;;;18.70;1.40;;;21.02;81.09;95557.01;645926;212;31617;-71
2021/07/16 07:52:08;;;;;;;3.10;1.73;;;18.50;1.40;;;20.97;83.23;95560.49;645674;212;31761;-71
2021/07/16 07:54:50;;;;;;;2.78;1.70;;;18.50;1.40;;;21.24;82.03;95561.09;645271;216;31590;-71
2021/07/16 08:00:07;;;;;;;1.50;1.40;;;18.50;1.40;;;21.52;81.77;95569.35;644780;212;31568;-71
2021/07/16 08:02:49;;;;;;;2.20;1.40;;;18.70;1.40;;;22.26;77.83;95572.83;646734;215;31717;-72
2021/07/16 08:05:34;;;;;;;1.70;1.40;;;19.10;1.40;;;22.10;75.27;95575.97;620405;226;31974;-70
2021/07/16 08:08:16;;;;;;;1.58;1.48;;;18.90;1.40;;;21.59;75.72;95577.27;646461;216;32372;-71
2021/07/16 08:10:59;;;;;;;2.67;1.60;;;18.70;1.40;;;20.73;81.70;95583.06;645934;216;31888;-72
2021/07/16 08:13:43;;;;;;;1.27;1.17;;;18.20;1.40;;;21.73;80.65;95580.49;647217;212;31552;-71
2021/07/16 08:16:25;;;;;;;1.30;1.20;;;18.70;1.40;;;22.05;81.26;95581.99;645672;212;31717;-71
2021/07/16 08:19:06;;;;;;;1.20;1.10;;;19.00;1.40;;;21.48;76.90;95579.16;647182;212;31902;-70
2021/07/16 08:24:24;;;;;;;1.30;1.20;;;18.30;1.40;;;20.23;80.51;95572.31;646268;216;31537;-72
2021/07/16 08:29:46;;;;;;;1.65;1.40;;;18.20;1.40;;;19.93;88.07;95567.96;644912;216;31935;-70
2021/07/16 08:32:28;;;;;;;2.10;0.93;;;18.50;1.40;;;19.60;83.50;95575.81;647360;212;31928;-71
2021/07/16 08:35:51;;;;;;;2.40;1.00;;;18.30;1.40;;;19.79;86.95;95582.33;647127;212;31562;-71
2021/07/16 08:38:32;;;;;;;1.80;0.90;;;18.80;1.40;;;20.95;80.55;95582.50;646040;212;31748;-72
2021/07/16 08:43:49;;;;;;;1.60;0.90;;;19.30;1.40;;;20.28;75.52;95583.19;646399;216;31554;-71
2021/07/16 08:46:33;;;;;;;1.10;0.80;;;19.10;1.40;;;20.73;76.49;95586.41;645770;212;31605;-70
2021/07/16 08:49:15;;;;;;;1.33;0.80;;;19.30;1.40;;;20.37;77.27;95581.21;646126;212;31511;-71
2021/07/16 08:51:57;;;;;;;1.15;0.80;;;18.70;1.40;;;20.66;75.42;95583.72;647264;216;31526;-71
2021/07/16 08:54:46;;;;;;;1.10;0.68;;;18.80;1.40;;;21.14;76.03;95585.09;645649;212;31591;-71
2021/07/16 08:57:26;;;;;;;1.62;0.65;;;19.30;1.40;;;21.92;73.96;95590.89;636164;217;36692;-70
2021/07/16 09:00:08;;;;;;;1.20;1.10;;;19.90;1.40;;;22.07;73.19;95595.73;645778;216;42127;-71
2021/07/16 09:02:50;;;;;;;1.30;1.00;;;20.20;1.40;;;21.13;75.20;95587.41;646098;212;32559;-71
2021/07/16 09:05:37;;;;;;;1.50;1.00;;;19.70;1.40;;;21.67;74.19;95585.98;646657;212;31507;-72
2021/07/16 09:08:18;;;;;;;1.20;0.80;;;20.30;1.40;;;21.87;72.07;95588.79;645993;216;32978;-71
2021/07/16 09:11:00;;;;;;;1.70;0.60;;;20.30;1.40;;;21.89;69.91;95592.75;645677;212;39324;-71
2021/07/16 09:13:41;;;;;;;2.40;0.80;;;20.20;1.40;;;22.05;73.77;95592.97;646957;212;31527;-70
2021/07/16 09:16:32;;;;;;;1.50;0.70;;;20.40;1.40;;;21.87;71.66;95594.38;646086;216;31476;-72
2021/07/16 09:19:14;;;;;;;1.40;0.90;;;20.90;1.40;;;22.17;70.90;95598.09;617685;225;31949;-73
2021/07/16 09:21:59;;;;;;;1.00;0.90;;;21.00;1.40;;;22.75;67.90;95598.97;646684;212;31520;-71
2021/07/16 09:27:30;;;;;;;3.05;1.08;;;20.70;1.40;;;22.55;70.64;95596.25;645540;216;31523;-72
2021/07/16 09:30:20;;;;;;;1.40;0.73;;;20.00;1.40;;;22.73;70.85;95595.67;645267;212;32203;-70
2021/07/16 09:33:00;;;;;;;0.98;0.77;;;20.10;1.40;;;22.21;67.94;95602.89;641142;216;31536;-70
2021/07/16 09:35:51;;;;;;;1.25;0.68;;;20.00;1.40;;;23.08;66.87;95599.63;647010;216;42151;-72
2021/07/16 09:38:33;;;;;;;1.45;0.60;;;20.50;1.40;;;23.73;64.14;95597.05;649001;216;31462;-71
2021/07/16 09:41:15;;;;;;;1.30;0.60;;;20.90;1.40;;;24.93;59.82;95591.98;633983;216;31696;-71
2021/07/16 09:43:58;;;;;;;1.30;1.00;;;23.20;1.40;;;27.18;58.35;95586.60;646040;212;31536;-71
2021/07/16 09:46:39;;;;;;;1.40;0.80;;;24.50;1.40;;;26.98;55.57;95589.67;647174;212;31595;-71
2021/07/16 09:49:21;;;;;;;3.35;0.90;;;23.20;1.40;;;28.52;53.50;95582.05;645687;212;31543;-71
2021/07/16 09:52:08;;;;;;;1.20;1.10;;;25.00;1.40;;;28.75;52.48;95584.23;647423;216;31779;-72
2021/07/16 09:55:07;;;;;;;2.70;2.60;;;25.60;1.40;;;30.21;47.27;95584.88;647504;216;31554;-72
2021/07/16 09:57:49;;;;;;;9.30;8.70;;;26.30;1.40;;;30.50;44.75;95582.77;645836;212;31509;-71
2021/07/16 10:00:33;;;;;;;4.95;4.75;;;26.00;1.40;;;31.79;44.34;95578.42;646888;216;31513;-71
2021/07/16 10:03:15;;;;;;;6.68;6.37;;;25.90;1.40;;;32.17;44.36;95570.23;647223;212;42289;-72
2021/07/16 10:05:57;;;;;;;11.73;11.23;;;27.00;1.40;;;32.13;43.54;95566.64;645433;212;31541;-72
2021/07/16 10:08:38;;;;;;;14.02;13.32;;;27.00;1.40;;;31.60;44.86;95571.80;646930;216;31708;-71
2021/07/16 10:11:20;;;;;;;15.25;14.65;;;25.60;1.40;;;29.79;44.35;95570.79;620132;225;31994;-71
2021/07/16 10:14:02;;;;;;;9.65;9.25;;;24.00;1.40;;;28.89;45.97;95570.59;646220;216;31715;-72
2021/07/16 10:16:44;;;;;;;5.15;4.95;;;23.40;1.40;;;25.03;52.70;95574.46;645935;212;31556;-72
2021/07/16 10:19:26;;;;;;;2.95;2.75;;;21.90;1.40;;;23.83;56.05;95575.05;645982;216;31497;-70
2021/07/16 10:22:07;;;;;;;2.50;1.20;;;21.50;1.40;;;26.56;51.20;95568.41;617622;225;31863;-71
2021/07/16 10:24:48;;;;;;;1.50;1.40;;;23.80;1.40;;;;;;646869;216;31787;-71
2021/07/16 10:27:29;;;;;;;2.87;2.67;;;23.80;1.40;;;;;;646227;216;31525;-71
2021/07/16 10:30:14;;;;;;;3.70;3.40;;;25.90;1.40;;;;;;645861;212;31488;-71
2021/07/16 10:32:57;;;;;;;5.60;5.40;;;27.00;1.40;;;;;;646474;212;31666;-69
2021/07/16 10:35:50;;;;;;;12.80;12.30;;;27.60;1.40;;;;;;614729;224;31897;-70
2021/07/16 10:38:32;;;;;;;12.23;11.80;;;25.80;1.40;;;;;;619523;222;31868;-70
2021/07/16 10:41:14;;;;;;;15.15;14.55;;;25.40;1.40;;;;;;635463;212;32208;-71
2021/07/16 10:43:55;;;;;;;13.93;13.32;;;25.40;1.40;;;;;;646504;216;31771;-70
2021/07/16 10:46:39;;;;;;;14.02;13.52;;;25.40;1.40;;;;;;646707;213;31680;-71
2021/07/16 10:49:20;;;;;;;14.13;13.52;;;25.80;1.40;;;;;;647223;216;31565;-71
2021/07/16 10:52:07;;;;;;;18.45;17.75;;;27.30;1.40;;;;;;645172;216;31675;-74
2021/07/16 10:54:48;;;;;;;20.27;19.48;;;28.60;1.40;;;;;;630843;221;32001;-75
2021/07/16 10:57:31;;;;;;;22.80;21.80;;;28.70;1.40;;;;;;646664;213;31586;-74
2021/07/16 11:00:30;;;;;;;24.67;23.67;;;26.50;1.40;;;;;;646292;216;42911;-71
2021/07/16 11:03:11;;;;;;;26.08;25.08;;;26.40;1.40;;;;;;647696;212;42416;-72
2021/07/16 11:05:54;;;;;;;25.12;24.12;;;27.70;1.40;;;;;;645765;216;43075;-74
2021/07/16 11:08:58;;;;;;;23.62;22.73;;;27.10;1.40;;;;;;645066;216;31731;-72
2021/07/16 11:11:38;;;;;;;22.87;21.98;;;25.40;1.40;;;;;;615624;224;42698;-72
2021/07/16 11:14:19;;;;;;;25.27;24.27;;;25.90;1.40;;;;;;618765;222;32064;-73
2021/07/16 11:17:03;;;;;;;23.10;22.20;;;27.20;1.40;;;;;;645817;216;42460;-72
2021/07/16 11:19:44;;;;;;;26.85;25.75;;;27.10;1.40;;;;;;645665;216;31687;-72
2021/07/16 11:22:26;;;;;;;20.12;19.40;;;25.60;1.40;;;;;;646530;212;31658;-72
2021/07/16 11:25:07;;;;;;;17.58;16.95;;;27.00;1.40;;;;;;646597;216;31664;-75
2021/07/16 11:27:48;;;;;;;25.40;24.40;;;28.80;1.40;;;;;;646874;216;31572;-71
2021/07/16 11:30:29;;;;;;;23.23;22.33;;;28.70;1.40;;;;;;646066;212;32198;-72
2021/07/16 11:35:53;;;;;;;25.80;24.80;;;29.50;1.40;;;37.81;32.64;95521.00;645873;212;32203;-71
2021/07/16 11:38:37;;;;;;;33.92;32.47;;;30.10;1.40;;;36.82;32.47;95526.89;646442;212;31587;-72
2021/07/16 11:43:53;;;;;;;41.70;39.95;;;29.30;1.40;;;32.82;34.98;95522.56;646462;216;31758;-72
2021/07/16 11:46:35;;;;;;;29.30;28.10;;;25.60;1.40;;;32.84;36.29;95518.10;645771;212;31606;-72
2021/07/16 11:49:24;;;;;;;21.23;20.33;;;25.20;1.40;;;29.28;41.38;95523.10;648074;212;31566;-72
2021/07/16 11:52:06;;;;;;;17.62;16.92;;;24.30;1.40;;;29.80;41.26;95524.72;646561;216;31599;-71
2021/07/16 11:54:51;;;;;;;10.65;10.20;;;24.40;1.40;;;28.25;42.90;95524.25;646496;212;31574;-71
2021/07/16 11:57:30;;;;;;;6.75;6.47;;;24.00;1.40;;;28.67;42.63;95522.17;646000;216;31567;-71
2021/07/16 12:00:13;;;;;;;4.75;4.55;;;23.80;1.40;;;28.24;42.93;95524.45;646388;216;31516;-71
2021/07/16 12:05:41;;;;;;;2.10;2.00;;;23.10;1.40;;;28.89;42.39;95521.94;647500;216;31954;-72
2021/07/16 12:08:24;;;;;;;1.80;1.27;;;25.10;1.40;;;32.28;36.84;95514.60;646143;212;31516;-71
2021/07/16 12:11:08;;;;;;;4.90;4.70;;;27.20;1.40;;;33.42;34.53;95517.31;646729;212;31714;-71
2021/07/16 12:13:58;;;;;;;8.00;7.70;;;28.00;1.40;;;34.70;33.10;95521.88;647829;212;31568;-72
2021/07/16 12:16:42;;;;;;;12.80;12.30;;;28.40;1.40;;;34.93;32.72;95522.92;645806;216;31829;-73
2021/07/16 12:19:29;;;;;;;15.65;15.05;;;27.10;1.40;;;33.32;34.85;95528.84;646620;216;31995;-72
2021/07/16 12:22:11;;;;;;;13.43;12.85;;;25.50;1.40;;;31.01;38.93;95534.00;645843;216;31680;-72